Terminal Aerodrome Forecast
Issued by NWS Jackson, MS

Home | Current Version | Previous Version | Text Only | Print | Product List | Glossary On
Versions: 1 2 3 4 5 6 7 8 9 10 11 12 13 14 15 16
000
FTUS44 KMEG 112300
TAFTUP
TAF
KTUP 112325Z 1200/1224 04006KT P6SM FEW100
     FM120100 00000KT P6SM SKC
      TEMPO 1209/1212 5SM BR=

USA.gov is the U.S. government's official web portal to all federal, state and local government web resources and services.